createdAt,value
2019-04-20T00:02:08.358Z,46.75
2019-04-20T00:04:35.168Z,46.85
2019-04-20T00:07:00.279Z,46.43
2019-04-20T00:09:32.806Z,46.64
2019-04-20T00:12:06.881Z,46.51
2019-04-20T00:14:30.955Z,46.62
2019-04-20T00:16:56.836Z,46.92
2019-04-20T00:19:33.667Z,47.07
2019-04-20T00:22:06.239Z,47.25
2019-04-20T00:24:38.611Z,47.48
2019-04-20T00:27:27.134Z,47.32
2019-04-20T00:29:49.936Z,47.72
2019-04-20T00:32:15.573Z,47.77
2019-04-20T00:34:37.024Z,47.89
2019-04-20T00:37:02.395Z,47.51
2019-04-20T00:39:31.999Z,47.85
2019-04-20T00:42:05.643Z,47.69
2019-04-20T00:44:34.194Z,47.96
2019-04-20T00:47:08.445Z,48.31
2019-04-20T00:49:41.892Z,48.32
2019-04-20T00:52:25.325Z,47.99
2019-04-20T00:54:24.573Z,48.02
2019-04-20T00:57:07.817Z,47.81
2019-04-20T00:59:35.490Z,47.79
2019-04-20T01:02:09.099Z,48.12
2019-04-20T01:04:40.712Z,48.15
2019-04-20T01:07:14.103Z,48.08
2019-04-20T01:09:47.846Z,47.67
2019-04-20T01:12:22.561Z,47.26
2019-04-20T01:14:53.576Z,47.64
2019-04-20T01:17:13.876Z,47.73
2019-04-20T01:19:42.827Z,47.53
2019-04-20T01:22:15.965Z,47.72
2019-04-20T01:24:46.271Z,47.76
2019-04-20T01:27:24.906Z,47.93
2019-04-20T01:29:44.345Z,47.70
2019-04-20T01:32:18.769Z,48.15
2019-04-20T01:34:50.209Z,47.72
2019-04-20T01:37:25.123Z,47.79
2019-04-20T01:39:40.008Z,47.89
2019-04-20T01:42:04.457Z,47.98
2019-04-20T01:44:38.516Z,47.87
2019-04-20T01:47:03.658Z,48.22
2019-04-20T01:49:33.256Z,48.10
2019-04-20T01:52:07.118Z,48.22
2019-04-20T01:54:45.284Z,48.03
2019-04-20T01:57:11.632Z,48.32
2019-04-20T01:59:48.195Z,48.61
2019-04-20T02:02:51.558Z,48.46
2019-04-20T02:05:22.861Z,48.62
2019-04-20T02:07:48.797Z,48.70
2019-04-20T02:10:15.656Z,49.10
2019-04-20T02:12:44.005Z,48.87
2019-04-20T02:15:22.176Z,49.03
2019-04-20T02:17:46.970Z,49.20
2019-04-20T02:20:27.534Z,49.06
2019-04-20T02:22:57.009Z,48.82
2019-04-20T02:25:08.005Z,48.97
2019-04-20T02:27:43.297Z,49.63
2019-04-20T02:30:44.939Z,49.88
2019-04-20T02:33:17.902Z,49.70
2019-04-20T02:36:01.193Z,49.38
2019-04-20T02:39:05.730Z,49.50
2019-04-20T02:41:18.234Z,49.57
2019-04-20T02:44:11.688Z,50.00
2019-04-20T02:46:12.797Z,50.38
2019-04-20T02:48:41.215Z,50.26
2019-04-20T02:51:06.548Z,49.93
2019-04-20T02:53:40.631Z,49.87
2019-04-20T02:56:12.526Z,49.95
2019-04-20T02:58:35.694Z,50.06
2019-04-20T03:00:52.346Z,49.96
2019-04-20T03:03:13.467Z,49.94
2019-04-20T03:05:42.440Z,50.00
2019-04-20T03:08:17.667Z,49.94
2019-04-20T03:10:54.981Z,50.03
2019-04-20T03:13:19.759Z,50.04
2019-04-20T03:15:51.827Z,50.15
2019-04-20T03:18:17.915Z,50.08
2019-04-20T03:20:48.909Z,50.31
2019-04-20T03:26:05.543Z,50.29
2019-04-20T03:28:53.879Z,50.43
2019-04-20T03:32:03.771Z,50.96
2019-04-20T03:34:23.141Z,51.59
2019-04-20T03:36:33.734Z,51.22
2019-04-20T03:38:53.833Z,51.27
2019-04-20T03:41:14.830Z,51.71
2019-04-20T03:43:31.279Z,51.55
2019-04-20T03:46:06.560Z,51.96
2019-04-20T03:48:48.304Z,52.18
2019-04-20T03:51:27.934Z,52.72
2019-04-20T03:54:02.873Z,52.65
2019-04-20T03:56:42.282Z,52.91
2019-04-20T03:59:21.300Z,52.67
2019-04-20T04:04:44.020Z,53.23
2019-04-20T04:06:59.485Z,53.26
2019-04-20T04:09:35.805Z,53.14
2019-04-20T04:12:06.564Z,52.96
2019-04-20T04:14:22.447Z,53.09
2019-04-20T04:16:57.026Z,53.10
2019-04-20T04:19:26.021Z,53.25
2019-04-20T04:22:04.022Z,53.27
2019-04-20T04:24:29.109Z,53.45
2019-04-20T04:26:58.293Z,53.60
2019-04-20T04:29:38.033Z,53.81
2019-04-20T04:32:12.033Z,53.83
2019-04-20T04:34:33.765Z,53.95
2019-04-20T04:37:08.719Z,54.07
2019-04-20T04:39:30.943Z,54.06
2019-04-20T04:42:13.655Z,53.98
2019-04-20T04:44:23.916Z,54.15
2019-04-20T04:46:42.609Z,54.20
2019-04-20T04:49:16.537Z,54.07
2019-04-20T04:51:46.812Z,54.18
2019-04-20T04:54:16.614Z,54.08
2019-04-20T04:56:35.549Z,54.04
2019-04-20T04:59:04.365Z,53.43
2019-04-20T05:01:35.591Z,54.12
2019-04-20T05:04:23.258Z,54.12
2019-04-20T05:06:43.349Z,54.15
2019-04-20T05:09:03.295Z,54.46
2019-04-20T05:11:28.249Z,54.34
2019-04-20T05:14:03.338Z,54.25
2019-04-20T05:16:45.174Z,54.20
2019-04-20T05:19:19.029Z,53.20
2019-04-20T05:22:09.305Z,52.46
2019-04-20T05:24:42.700Z,53.18
2019-04-20T05:27:37.509Z,52.92
2019-04-20T05:29:44.721Z,53.08
2019-04-20T05:32:17.000Z,53.34
2019-04-20T05:35:07.377Z,53.53
2019-04-20T05:37:37.135Z,53.32
2019-04-20T05:39:57.756Z,53.09
2019-04-20T05:42:31.394Z,53.20
2019-04-20T05:44:56.506Z,53.31
2019-04-20T05:47:27.046Z,52.54
2019-04-20T05:49:56.064Z,52.39
2019-04-20T05:54:57.643Z,49.33
2019-04-20T05:57:26.344Z,47.32
2019-04-20T05:59:55.697Z,45.69
2019-04-20T06:02:23.140Z,43.58
2019-04-20T06:05:03.230Z,43.44
2019-04-20T06:07:21.505Z,43.82
2019-04-20T06:09:46.403Z,42.11
2019-04-20T06:14:57.169Z,36.24
2019-04-20T06:17:51.534Z,35.78
2019-04-20T06:20:21.837Z,36.40
2019-04-20T06:22:52.694Z,36.43
2019-04-20T06:28:02.021Z,34.76
2019-04-20T06:30:11.149Z,32.75
2019-04-20T06:33:31.388Z,31.70
2019-04-20T06:36:07.546Z,31.55
2019-04-20T06:38:34.894Z,30.99
2019-04-20T06:41:00.612Z,30.38
2019-04-20T06:43:12.488Z,30.52
2019-04-20T06:45:51.131Z,29.70
2019-04-20T06:48:21.677Z,30.04
2019-04-20T06:50:38.462Z,31.26
2019-04-20T06:53:23.923Z,31.56
2019-04-20T06:56:02.880Z,31.95
2019-04-20T06:58:36.099Z,31.02
2019-04-20T07:00:46.438Z,29.70
2019-04-20T07:03:33.690Z,28.17
2019-04-20T07:05:47.775Z,27.87
2019-04-20T07:08:27.610Z,27.39
2019-04-20T07:10:45.594Z,24.89
2019-04-20T07:13:06.169Z,23.76
2019-04-20T07:15:49.577Z,22.23
2019-04-20T07:18:32.369Z,21.55
2019-04-20T07:21:12.661Z,20.76
2019-04-20T07:23:41.411Z,18.56
2019-04-20T07:26:16.919Z,17.22
2019-04-20T07:28:47.489Z,16.68
2019-04-20T07:31:06.805Z,16.99
2019-04-20T07:33:43.094Z,16.98
2019-04-20T07:36:06.089Z,17.07
2019-04-20T07:38:40.611Z,16.38
2019-04-20T07:41:01.407Z,17.30
2019-04-20T07:43:30.036Z,15.77
2019-04-20T07:46:03.030Z,14.56
2019-04-20T07:48:29.284Z,12.96
2019-04-20T07:50:53.367Z,12.85
2019-04-20T07:53:25.787Z,13.23
2019-04-20T07:56:00.151Z,12.25
2019-04-20T07:58:19.817Z,11.87
2019-04-20T08:01:09.078Z,11.00
2019-04-20T08:03:38.135Z,11.41
2019-04-20T08:06:16.573Z,11.01
2019-04-20T08:08:53.159Z,11.69
2019-04-20T08:11:24.444Z,10.74
2019-04-20T08:13:56.958Z,10.18
2019-04-20T08:16:35.660Z,10.43
2019-04-20T08:18:53.895Z,9.88
2019-04-20T08:21:22.907Z,9.36
2019-04-20T08:23:49.072Z,8.78
2019-04-20T08:26:08.763Z,9.46
2019-04-20T08:28:42.595Z,9.20
2019-04-20T08:31:35.026Z,8.76
2019-04-20T08:36:41.697Z,8.87
2019-04-20T08:39:22.990Z,8.70
2019-04-20T08:41:39.806Z,9.14
2019-04-20T08:44:30.904Z,8.20
2019-04-20T08:46:45.610Z,8.58
2019-04-20T08:49:13.215Z,9.34
2019-04-20T08:51:48.336Z,8.88
2019-04-20T08:54:03.366Z,8.20
2019-04-20T08:56:25.152Z,8.20
2019-04-20T08:58:41.447Z,8.38
2019-04-20T09:01:14.088Z,7.79
2019-04-20T09:03:52.955Z,9.02
2019-04-20T09:06:23.807Z,8.87
2019-04-20T09:08:49.237Z,8.70
2019-04-20T09:11:21.824Z,8.25
2019-04-20T09:13:43.443Z,8.71
2019-04-20T09:16:04.209Z,8.30
2019-04-20T09:18:44.264Z,8.90
2019-04-20T09:21:13.726Z,9.68
2019-04-20T09:23:49.676Z,10.04
2019-04-20T09:26:20.574Z,8.32
2019-04-20T09:28:58.964Z,8.65
2019-04-20T09:31:31.378Z,8.93
2019-04-20T09:34:16.240Z,8.67
2019-04-20T09:36:47.211Z,8.86
2019-04-20T09:39:27.163Z,9.02
2019-04-20T09:42:00.694Z,9.09
2019-04-20T09:44:25.676Z,9.98
2019-04-20T09:46:56.312Z,9.64
2019-04-20T09:49:37.758Z,9.02
2019-04-20T09:52:04.746Z,9.38
2019-04-20T09:54:40.384Z,8.80
2019-04-20T09:57:09.478Z,10.50
2019-04-20T09:59:33.575Z,8.86
2019-04-20T10:01:48.908Z,10.00
2019-04-20T10:04:15.235Z,10.07
2019-04-20T10:06:43.607Z,10.71
2019-04-20T10:09:11.895Z,9.98
2019-04-20T10:11:43.753Z,9.51
2019-04-20T10:14:10.403Z,9.99
2019-04-20T10:16:40.016Z,9.46
2019-04-20T10:19:11.675Z,10.48
2019-04-20T10:21:37.988Z,9.80
2019-04-20T10:24:06.314Z,11.25
2019-04-20T10:26:34.869Z,10.40
2019-04-20T10:29:03.802Z,10.28
2019-04-20T10:31:35.689Z,8.94
2019-04-20T10:34:01.778Z,9.31
2019-04-20T10:36:38.017Z,9.02
2019-04-20T10:39:08.798Z,9.38
2019-04-20T10:41:45.152Z,9.86
2019-04-20T10:44:07.166Z,9.62
2019-04-20T10:46:36.245Z,9.29
2019-04-20T10:49:06.033Z,10.81
2019-04-20T10:51:33.748Z,10.21
2019-04-20T10:54:02.645Z,11.11
2019-04-20T10:56:31.759Z,10.07
2019-04-20T10:59:01.434Z,11.09
2019-04-20T11:01:29.710Z,10.19
2019-04-20T11:03:58.794Z,9.19
2019-04-20T11:06:28.732Z,9.98
2019-04-20T11:08:56.486Z,9.07
2019-04-20T11:11:28.639Z,9.90
2019-04-20T11:13:55.346Z,10.09
2019-04-20T11:16:24.351Z,9.61
2019-04-20T11:18:53.563Z,9.81
2019-04-20T11:21:24.708Z,8.87
2019-04-20T11:23:54.030Z,9.38
2019-04-20T11:26:22.100Z,10.10
2019-04-20T11:28:50.708Z,10.06
2019-04-20T11:31:20.041Z,9.94
2019-04-20T11:33:49.948Z,10.00
2019-04-20T11:36:18.894Z,9.96
2019-04-20T11:38:47.043Z,10.00
2019-04-20T11:41:23.007Z,9.50
2019-04-20T11:43:44.495Z,10.48
2019-04-20T11:46:14.515Z,11.25
2019-04-20T11:48:43.480Z,13.50
2019-04-20T11:51:11.676Z,12.32
2019-04-20T11:53:40.505Z,11.98
2019-04-20T11:56:14.577Z,12.83
2019-04-20T11:58:38.781Z,14.16
2019-04-20T12:01:37.990Z,13.23
2019-04-20T12:04:13.035Z,14.92
2019-04-20T12:06:30.832Z,14.20
2019-04-20T12:09:00.914Z,14.23
2019-04-20T12:11:37.129Z,15.20
2019-04-20T12:13:58.684Z,14.74
2019-04-20T12:16:27.746Z,15.20
2019-04-20T12:18:56.633Z,15.43
2019-04-20T12:21:24.368Z,14.94
2019-04-20T12:23:54.063Z,15.20
2019-04-20T12:26:22.680Z,15.53
2019-04-20T12:28:51.621Z,15.21
2019-04-20T12:31:23.963Z,15.51
2019-04-20T12:33:50.430Z,15.90
2019-04-20T12:36:18.400Z,15.34
2019-04-20T12:38:47.223Z,15.37
2019-04-20T12:41:16.286Z,14.87
2019-04-20T12:43:45.690Z,15.50
2019-04-20T12:46:17.860Z,16.08
2019-04-20T12:48:43.843Z,16.78
2019-04-20T12:51:13.289Z,15.11
2019-04-20T12:53:42.558Z,16.33
2019-04-20T12:56:10.674Z,15.27
2019-04-20T12:58:42.992Z,15.31
2019-04-20T13:01:08.432Z,16.02
2019-04-20T13:03:37.516Z,16.48
2019-04-20T13:06:07.885Z,15.79
2019-04-20T13:08:44.109Z,15.27
2019-04-20T13:11:53.045Z,15.99
2019-04-20T13:14:40.152Z,16.71
2019-04-20T13:17:24.148Z,16.55
2019-04-20T13:23:29.036Z,15.77
2019-04-20T13:39:25.063Z,16.68
2019-04-20T13:49:04.995Z,16.80
2019-04-20T13:52:18.136Z,16.85
2019-04-20T13:55:35.931Z,17.29
2019-04-20T13:59:03.770Z,16.99
2019-04-20T14:02:07.592Z,16.73
2019-04-20T14:05:16.852Z,17.28
2019-04-20T14:16:14.278Z,16.73
2019-04-20T14:16:50.477Z,16.56
2019-04-20T14:25:54.565Z,17.60
2019-04-20T14:27:03.395Z,16.87
2019-04-20T14:28:58.574Z,16.67
2019-04-20T14:34:29.135Z,16.91
2019-04-20T14:37:12.933Z,17.21
2019-04-20T14:39:56.569Z,17.38
2019-04-20T14:42:54.644Z,17.25
2019-04-20T14:46:06.798Z,17.57
2019-04-20T14:51:12.156Z,18.02
2019-04-20T14:52:29.323Z,17.72
2019-04-20T14:55:12.534Z,18.40
2019-04-20T14:58:01.923Z,18.17
2019-04-20T15:01:30.324Z,18.28
2019-04-20T15:04:06.914Z,18.55
2019-04-20T15:06:46.460Z,18.27
2019-04-20T15:10:13.611Z,18.82
2019-04-20T15:16:46.841Z,18.68
2019-04-20T15:20:03.401Z,17.66
2019-04-20T15:26:20.408Z,17.99
2019-04-20T15:29:24.640Z,17.96
2019-04-20T15:32:59.150Z,18.02
2019-04-20T15:35:38.056Z,18.15
2019-04-20T15:41:41.080Z,18.68
2019-04-20T15:44:47.239Z,18.61
2019-04-20T15:47:34.549Z,19.10
2019-04-20T15:50:33.847Z,18.69
2019-04-20T15:53:19.704Z,18.60
2019-04-20T15:56:18.522Z,18.39
2019-04-20T15:58:52.821Z,18.55
2019-04-20T16:02:33.853Z,19.56
2019-04-20T16:09:08.355Z,19.15
2019-04-20T16:11:41.999Z,19.44
2019-04-20T16:14:37.736Z,19.97
2019-04-20T16:17:25.192Z,19.50
2019-04-20T16:20:06.264Z,19.79
2019-04-20T16:23:04.753Z,19.56
2019-04-20T16:26:26.628Z,19.73
2019-04-20T16:29:01.829Z,19.47
2019-04-20T16:31:40.590Z,20.36
2019-04-20T16:34:38.087Z,19.66
2019-04-20T16:37:28.644Z,19.76
2019-04-20T16:40:04.088Z,20.15
2019-04-20T16:43:02.635Z,20.26
2019-04-20T16:49:21.265Z,20.19
2019-04-20T16:52:19.116Z,20.22
2019-04-20T16:54:59.731Z,20.17
2019-04-20T16:57:55.409Z,20.48
2019-04-20T17:00:27.674Z,20.19
2019-04-20T17:09:21.985Z,20.45
2019-04-20T17:18:11.781Z,21.12
2019-04-20T17:21:04.463Z,21.00
2019-04-20T17:23:45.671Z,20.69
2019-04-20T17:29:30.318Z,20.32
2019-04-20T17:32:08.063Z,20.48
2019-04-20T17:35:00.107Z,20.88
2019-04-20T17:37:24.739Z,20.69
2019-04-20T17:40:18.784Z,20.93
2019-04-20T17:42:45.049Z,20.78
2019-04-20T17:45:42.177Z,21.12
2019-04-20T17:51:53.466Z,21.15
2019-04-20T17:54:53.241Z,20.96
2019-04-20T17:59:30.460Z,21.57
2019-04-20T18:00:22.481Z,21.63
2019-04-20T18:03:30.210Z,21.56
2019-04-20T18:06:09.487Z,21.80
2019-04-20T18:08:40.439Z,21.70
2019-04-20T18:10:58.567Z,22.30
2019-04-20T18:13:21.806Z,22.28
2019-04-20T18:16:11.524Z,22.69
2019-04-20T18:18:47.828Z,22.54
2019-04-20T18:21:12.895Z,23.02
2019-04-20T18:23:44.804Z,23.47
2019-04-20T18:26:31.802Z,24.03
2019-04-20T18:29:06.905Z,23.76
2019-04-20T18:31:23.766Z,24.93
2019-04-20T18:33:54.438Z,25.21
2019-04-20T18:36:30.633Z,25.07
2019-04-20T18:38:58.910Z,25.37
2019-04-20T18:41:30.842Z,25.67
2019-04-20T18:43:55.346Z,26.17
2019-04-20T18:46:39.291Z,26.70
2019-04-20T18:49:04.747Z,26.78
2019-04-20T18:51:17.612Z,26.94
2019-04-20T18:53:48.641Z,27.16
2019-04-20T18:56:18.583Z,27.45
2019-04-20T18:58:45.216Z,27.91
2019-04-20T19:01:13.024Z,27.77
2019-04-20T19:03:44.455Z,27.93
2019-04-20T19:06:12.346Z,28.13
2019-04-20T19:08:46.254Z,28.70
2019-04-20T19:11:13.199Z,29.28
2019-04-20T19:13:45.884Z,29.40
2019-04-20T19:16:36.617Z,29.34
2019-04-20T19:19:24.560Z,29.64
2019-04-20T19:21:43.743Z,29.58
2019-04-20T19:24:14.755Z,30.00
2019-04-20T19:26:44.948Z,30.78
2019-04-20T19:29:19.983Z,29.85
2019-04-20T19:31:56.938Z,29.96
2019-04-20T19:34:26.095Z,30.19
2019-04-20T19:36:42.477Z,30.37
2019-04-20T19:39:21.335Z,30.30
2019-04-20T19:41:47.753Z,29.76
2019-04-20T19:44:16.082Z,29.16
2019-04-20T19:46:53.704Z,30.05
2019-04-20T19:49:19.375Z,29.92
2019-04-20T19:52:02.727Z,30.17
2019-04-20T19:54:23.867Z,30.41
2019-04-20T19:56:47.392Z,30.71
2019-04-20T19:59:10.970Z,30.51
2019-04-20T20:01:29.529Z,30.67
2019-04-20T20:04:02.255Z,30.77
2019-04-20T20:06:35.475Z,30.94
2019-04-20T20:09:00.567Z,30.95
2019-04-20T20:11:30.228Z,31.14
2019-04-20T20:13:55.427Z,31.44
2019-04-20T20:16:30.435Z,31.49
2019-04-20T20:19:03.899Z,31.54
2019-04-20T20:21:34.194Z,31.83
2019-04-20T20:23:50.121Z,31.97
2019-04-20T20:26:25.007Z,32.17
2019-04-20T20:29:02.550Z,32.12
2019-04-20T20:31:27.553Z,32.21
2019-04-20T20:33:59.028Z,31.96
2019-04-20T20:36:19.658Z,31.96
2019-04-20T20:38:50.231Z,32.07
2019-04-20T20:41:21.789Z,32.38
2019-04-20T20:43:53.624Z,32.12
2019-04-20T20:46:19.413Z,32.34
2019-04-20T20:49:06.240Z,32.49
2019-04-20T20:51:35.537Z,32.70
2019-04-20T20:53:51.296Z,32.60
2019-04-20T20:56:15.056Z,32.78
2019-04-20T20:58:48.521Z,32.70
2019-04-20T21:01:10.790Z,33.02
2019-04-20T21:03:41.817Z,33.13
2019-04-20T21:06:03.315Z,33.41
2019-04-20T21:08:31.489Z,33.44
2019-04-20T21:11:00.180Z,33.53
2019-04-20T21:13:37.899Z,33.91
2019-04-20T21:16:03.079Z,33.91
2019-04-20T21:18:49.094Z,34.02
2019-04-20T21:21:13.289Z,34.60
2019-04-20T21:23:36.760Z,34.46
2019-04-20T21:26:11.475Z,34.35
2019-04-20T21:28:39.826Z,34.54
2019-04-20T21:31:13.796Z,34.90
2019-04-20T21:33:38.842Z,35.05
2019-04-20T21:36:06.970Z,35.22
2019-04-20T21:38:39.285Z,35.51
2019-04-20T21:41:09.416Z,35.86
2019-04-20T21:43:37.275Z,36.11
2019-04-20T21:46:04.860Z,36.38
2019-04-20T21:48:46.629Z,36.67
2019-04-20T21:51:15.257Z,36.57
2019-04-20T21:53:31.907Z,36.79
2019-04-20T21:55:57.552Z,36.72
2019-04-20T21:58:32.277Z,36.71
2019-04-20T22:01:08.035Z,37.10
2019-04-20T22:03:27.276Z,37.60
2019-04-20T22:06:04.727Z,38.12
2019-04-20T22:08:32.754Z,38.35
2019-04-20T22:11:01.914Z,38.42
2019-04-20T22:13:36.553Z,38.49
2019-04-20T22:16:05.436Z,39.06
2019-04-20T22:18:28.815Z,39.20
2019-04-20T22:21:05.848Z,39.43
2019-04-20T22:23:43.389Z,39.31
2019-04-20T22:26:10.233Z,39.35
2019-04-20T22:28:24.464Z,39.55
2019-04-20T22:30:53.905Z,39.75
2019-04-20T22:33:30.989Z,39.84
2019-04-20T22:35:58.907Z,40.05
2019-04-20T22:38:54.499Z,40.53
2019-04-20T22:41:21.258Z,40.32
2019-04-20T22:43:48.084Z,40.60
2019-04-20T22:46:17.502Z,40.58
2019-04-20T22:48:52.076Z,40.64
2019-04-20T22:51:30.183Z,40.74
2019-04-20T22:53:55.886Z,41.12
2019-04-20T22:56:30.320Z,41.50
2019-04-20T22:58:52.772Z,41.52
2019-04-20T23:01:19.425Z,41.82
2019-04-20T23:03:38.939Z,41.89
2019-04-20T23:06:08.932Z,41.86
2019-04-20T23:08:36.689Z,42.08
2019-04-20T23:11:09.605Z,42.26
2019-04-20T23:13:39.730Z,42.57
2019-04-20T23:16:04.421Z,42.52
2019-04-20T23:18:33.909Z,42.50
2019-04-20T23:21:07.994Z,42.56
2019-04-20T23:23:32.150Z,42.44
2019-04-20T23:26:00.848Z,42.45
2019-04-20T23:28:29.149Z,42.69
2019-04-20T23:31:02.492Z,43.17
2019-04-20T23:33:27.674Z,43.63
2019-04-20T23:35:59.172Z,43.60
2019-04-20T23:38:24.830Z,43.41
2019-04-20T23:40:53.500Z,44.15
2019-04-20T23:43:29.031Z,44.19
2019-04-20T23:46:24.702Z,43.95
2019-04-20T23:49:18.779Z,43.67
2019-04-20T23:51:54.221Z,43.57
2019-04-20T23:54:12.944Z,43.84
2019-04-20T23:56:35.307Z,43.66
2019-04-20T23:59:04.359Z,43.75
